Steinar Olaisen — LDZY — position and weather

sailwx.info

Track history (hours):
 
Tides and Currents Weather Stations Pressure Air Temp Water Temp Dewpoint Dewpoint Depression Visibility Wind Speed Wind Dir Waves Ship Positions

Steinar Olaisen

Last reported at 2018-Jun-18 17:30 UTC. Time now 2018-Jun-18 17:34 UTC.
Position N 66°49' E 013°36'.

Length 80 m; draft 7 m.

Type: Cargo ship. MMSI: 258489000.

Date/timePositionNaut miles runAvg speedWind from/ knotsBaromVisibWave heightAir tempDewpointWater temp
2018-Jun-18 17:30N 66°49' E 013°36'3 5.9
2018-Jun-18 17:00N 66°49' E 013°29'0 0.9
2018-Jun-18 16:28N 66°48' E 013°27'0 0.4
2018-Jun-18 16:00N 66°49' E 013°28'1 1.3
2018-Jun-18 15:30N 66°49' E 013°29'0 0.3
2018-Jun-18 15:00N 66°49' E 013°29'1 1.4
2018-Jun-18 14:30N 66°49' E 013°28'0 0.2
2018-Jun-18 14:00N 66°49' E 013°28'0 0.0
2018-Jun-18 13:30N 66°49' E 013°28'0 0.2
2018-Jun-18 13:00N 66°49' E 013°28'0 0.3
2018-Jun-18 12:30N 66°49' E 013°28'0 0.0
2018-Jun-18 12:00N 66°49' E 013°28'0 0.0
2018-Jun-18 11:30N 66°49' E 013°28'0 0.0
2018-Jun-18 11:00N 66°49' E 013°28'0 0.0
2018-Jun-18 10:30N 66°49' E 013°28'0 0.0
2018-Jun-18 10:00N 66°49' E 013°28'0 0.0
2018-Jun-18 09:30N 66°49' E 013°28'0 0.0
2018-Jun-18 09:00N 66°49' E 013°28'0 0.0
2018-Jun-18 08:30N 66°49' E 013°28'0 0.0
2018-Jun-18 08:00N 66°49' E 013°28'0 0.0
2018-Jun-18 07:29N 66°49' E 013°28'0 0.0
2018-Jun-18 07:00N 66°49' E 013°28'0 0.0
2018-Jun-18 06:30N 66°49' E 013°28'0 0.0
2018-Jun-18 05:59N 66°49' E 013°28'1 2.6
2018-Jun-18 05:30N 66°49' E 013°31'4 8.5
2018-Jun-18 05:00N 66°54' E 013°31'4 8.8
2018-Jun-18 04:30N 66°58' E 013°31'5 9.9
2018-Jun-18 04:00N 67°01' E 013°42'5 9.7
2018-Jun-18 03:30N 67°03' E 013°52'5 9.7
2018-Jun-18 03:01N 67°07' E 014°00'5 9.1
2018-Jun-18 02:31N 67°11' E 014°06'5 9.7
2018-Jun-18 02:00N 67°15' E 014°14'4 8.1
2018-Jun-18 01:30N 67°17' E 014°23'0 0.0
2018-Jun-18 01:00N 67°17' E 014°23'0 0.0
2018-Jun-18 00:30N 67°17' E 014°23'0 0.0
2018-Jun-18 00:00N 67°17' E 014°23'0 0.0
2018-Jun-17 23:30N 67°17' E 014°23'0 0.0
2018-Jun-17 23:00N 67°17' E 014°23'0 0.0
2018-Jun-17 22:30N 67°17' E 014°23'0 0.0
2018-Jun-17 22:00N 67°17' E 014°23'0 0.0
2018-Jun-17 21:30N 67°17' E 014°23'0 0.0
2018-Jun-17 21:00N 67°17' E 014°23'0 0.0
2018-Jun-17 20:30N 67°17' E 014°23'0 0.0
2018-Jun-17 20:00N 67°17' E 014°23'0 0.0
2018-Jun-17 19:30N 67°17' E 014°23'0 0.0
2018-Jun-17 19:00N 67°17' E 014°23'0 0.0
2018-Jun-17 18:30N 67°17' E 014°23'0 0.0
2018-Jun-17 18:00N 67°17' E 014°23'0 0.0
2018-Jun-17 17:30N 67°17' E 014°23'0 0.0
2018-Jun-17 17:00N 67°17' E 014°23'0 0.0
2018-Jun-17 16:30N 67°17' E 014°23'0 0.0
2018-Jun-17 16:00N 67°17' E 014°23'0 0.0
2018-Jun-17 15:30N 67°17' E 014°23'0 0.0
2018-Jun-17 15:00N 67°17' E 014°23'0 0.0
2018-Jun-17 14:30N 67°17' E 014°23'0 0.0
2018-Jun-17 14:00N 67°17' E 014°23'0 0.0
2018-Jun-17 13:30N 67°17' E 014°23'0 0.0
2018-Jun-17 13:00N 67°17' E 014°23'0 0.0
2018-Jun-17 12:30N 67°17' E 014°23'0 0.0
2018-Jun-17 12:00N 67°17' E 014°23'0 0.0
2018-Jun-17 11:30N 67°17' E 014°23'0 0.0
2018-Jun-17 11:00N 67°17' E 014°23'0 0.0
2018-Jun-17 10:30N 67°17' E 014°23'0 0.0
2018-Jun-17 10:00N 67°17' E 014°23'0 0.0
2018-Jun-17 09:30N 67°17' E 014°23'0 0.0
2018-Jun-17 09:00N 67°17' E 014°23'0 0.0
2018-Jun-17 08:30N 67°17' E 014°23'0 0.0
2018-Jun-17 08:00N 67°17' E 014°23'0 0.0
2018-Jun-17 07:30N 67°17' E 014°23'0 0.0
2018-Jun-17 07:00N 67°17' E 014°23'0 0.0
2018-Jun-17 06:30N 67°17' E 014°23'0 0.0
2018-Jun-17 06:00N 67°17' E 014°23'0 0.0
2018-Jun-17 05:30N 67°17' E 014°23'0 0.0
2018-Jun-17 05:00N 67°17' E 014°23'0 0.0
2018-Jun-17 04:30N 67°17' E 014°23'0 0.0
2018-Jun-17 04:00N 67°17' E 014°23'0 0.0
2018-Jun-17 03:30N 67°17' E 014°23'0 0.9
2018-Jun-17 03:01N 67°17' E 014°22'4 8.1
2018-Jun-17 02:30N 67°15' E 014°12'4 7.8
2018-Jun-17 02:00N 67°12' E 014°07'4 8.8
2018-Jun-17 01:30N 67°08' E 014°02'1 2.0
2018-Jun-17 01:01N 67°08' E 013°59'0 0.0
2018-Jun-17 00:30N 67°08' E 013°59'0 0.0
2018-Jun-17 00:00N 67°08' E 013°59'0 0.0
2018-Jun-16 23:30N 67°08' E 013°59'1 2.0
2018-Jun-16 23:01N 67°08' E 014°01'5 9.6
2018-Jun-16 22:30N 67°11' E 014°09'611.1
2018-Jun-16 22:00N 67°13' E 014°22'511.0
2018-Jun-16 21:31N 67°15' E 014°36'4 7.6
2018-Jun-16 21:00N 67°14' E 014°46'1 2.3
2018-Jun-16 20:29N 67°15' E 014°49'0 1.0
2018-Jun-16 20:00N 67°15' E 014°48'4 8.6
2018-Jun-16 19:31N 67°16' E 014°59'4 8.2
2018-Jun-16 19:00N 67°15' E 015°09'4 8.1
2018-Jun-16 18:30N 67°13' E 015°19'1 1.8
2018-Jun-16 18:00N 67°14' E 015°21'0 0.0
2018-Jun-16 17:30N 67°14' E 015°21'0 0.0
2018-Jun-16 17:00N 67°14' E 015°21'0 0.0
2018-Jun-16 16:29N 67°14' E 015°21'0 0.3
2018-Jun-16 16:00N 67°14' E 015°21'2 4.7
2018-Jun-16 15:30N 67°15' E 015°25'0 0.0
2018-Jun-16 15:00N 67°15' E 015°25'0 0.0
2018-Jun-16 14:30N 67°15' E 015°25'0 0.0
2018-Jun-16 14:00N 67°15' E 015°25'0 0.0
2018-Jun-16 13:30N 67°15' E 015°25'0 0.0
2018-Jun-16 13:00N 67°15' E 015°25'0 0.0
2018-Jun-16 12:30N 67°15' E 015°25'0 0.0
2018-Jun-16 12:00N 67°15' E 015°25'0 0.0
2018-Jun-16 11:29N 67°15' E 015°25'0 0.0
2018-Jun-16 11:00N 67°15' E 015°25'0 0.0
2018-Jun-16 10:31N 67°15' E 015°25'0 0.0
2018-Jun-16 10:00N 67°15' E 015°25'0 0.0
2018-Jun-16 09:30N 67°15' E 015°25'0 0.0
2018-Jun-16 09:00N 67°15' E 015°25'0 0.0
2018-Jun-16 08:30N 67°15' E 015°25'0 0.0
2018-Jun-16 07:59N 67°15' E 015°25'0 0.0
2018-Jun-16 07:30N 67°15' E 015°25'0 0.0
2018-Jun-16 07:00N 67°15' E 015°25'0 0.0
2018-Jun-16 06:29N 67°15' E 015°25'0 0.0
2018-Jun-16 06:00N 67°15' E 015°25'0 0.0
2018-Jun-16 05:30N 67°15' E 015°25'0 0.0
2018-Jun-16 05:00N 67°15' E 015°25'0 0.0
2018-Jun-16 04:30N 67°15' E 015°25'0 0.0
2018-Jun-16 04:01N 67°15' E 015°25'0 0.0
2018-Jun-16 03:31N 67°15' E 015°25'0 0.0
2018-Jun-16 03:00N 67°15' E 015°25'0 0.0
2018-Jun-16 02:30N 67°15' E 015°25'0 0.0
2018-Jun-16 02:00N 67°15' E 015°25'0 0.0
2018-Jun-16 01:30N 67°15' E 015°25'0 0.0
2018-Jun-16 01:00N 67°15' E 015°25'0 0.0
2018-Jun-16 00:30N 67°15' E 015°25'0 0.0
2018-Jun-16 00:00N 67°15' E 015°25'2 3.9
2018-Jun-15 23:30N 67°14' E 015°21'3 7.0
2018-Jun-15 23:01N 67°11' E 015°26'5 9.1
2018-Jun-15 22:30N 67°13' E 015°15'4 8.7
2018-Jun-15 22:00N 67°15' E 015°04'4 8.1
2018-Jun-15 21:30N 67°16' E 014°54'510.3
2018-Jun-15 21:00N 67°13' E 014°43'4 7.5
2018-Jun-15 20:31N 67°15' E 014°35'3 5.2
2018-Jun-15 20:00N 67°15' E 014°28'3 6.7
2018-Jun-15 19:30N 67°15' E 014°19'3 5.8
2018-Jun-15 19:00N 67°17' E 014°14'4 8.8
2018-Jun-15 18:31N 67°20' E 014°22'4 7.6
2018-Jun-15 18:00N 67°23' E 014°28'4 8.4
2018-Jun-15 17:31N 67°26' E 014°35'3 5.6
2018-Jun-15 17:00N 67°27' E 014°43'0 0.2
2018-Jun-15 16:30N 67°27' E 014°43'0 0.0
2018-Jun-15 16:00N 67°27' E 014°43'0 0.0
2018-Jun-15 15:30N 67°27' E 014°43'0 0.0
2018-Jun-15 15:00N 67°27' E 014°43'0 0.0
2018-Jun-15 14:29N 67°27' E 014°43'0 0.0
2018-Jun-15 14:00N 67°27' E 014°43'0 0.0
2018-Jun-15 13:30N 67°27' E 014°43'0 0.0
2018-Jun-15 13:00N 67°27' E 014°43'0 0.0
2018-Jun-15 12:30N 67°27' E 014°43'0 0.0
2018-Jun-15 12:00N 67°27' E 014°43'0 0.0
2018-Jun-15 11:30N 67°27' E 014°43'0 0.0
2018-Jun-15 11:01N 67°27' E 014°43'0 0.0
2018-Jun-15 10:30N 67°27' E 014°43'0 0.0
2018-Jun-15 10:00N 67°27' E 014°43'0 0.0
2018-Jun-15 09:31N 67°27' E 014°43'0 0.0
2018-Jun-15 09:00N 67°27' E 014°43'0 0.0
2018-Jun-15 08:30N 67°27' E 014°43'0 0.0
2018-Jun-15 08:00N 67°27' E 014°43'0 0.0
2018-Jun-15 07:30N 67°27' E 014°43'0 0.0
2018-Jun-15 07:00N 67°27' E 014°43'0 0.0
2018-Jun-15 06:30N 67°27' E 014°43'0 0.0
2018-Jun-15 06:00N 67°27' E 014°43'0 0.0
2018-Jun-15 05:30N 67°27' E 014°43'1 2.1
2018-Jun-15 05:00N 67°27' E 014°40'1 2.6
2018-Jun-15 04:30N 67°27' E 014°37'2 4.6
2018-Jun-15 04:01N 67°25' E 014°33'3 6.9
2018-Jun-15 03:30N 67°22' E 014°27'3 6.7
2018-Jun-15 03:01N 67°20' E 014°21'3 6.7
2018-Jun-15 02:30N 67°17' E 014°16'4 7.1
2018-Jun-15 02:01N 67°14' E 014°11'4 7.5
2018-Jun-15 01:30N 67°11' E 014°05'4 8.6
2018-Jun-15 01:01N 67°07' E 014°01'1 2.3
2018-Jun-15 00:30N 67°08' E 013°59'0 0.0
2018-Jun-15 00:01N 67°08' E 013°59'0 0.0
2018-Jun-14 23:30N 67°08' E 013°59'0 0.0
2018-Jun-14 23:01N 67°08' E 013°59'0 0.0
2018-Jun-14 22:30N 67°08' E 013°59'0 0.0
2018-Jun-14 22:00N 67°08' E 013°59'0 0.0
2018-Jun-14 21:30N 67°08' E 013°59'0 0.0
2018-Jun-14 21:01N 67°08' E 013°59'0 0.0
2018-Jun-14 20:30N 67°08' E 013°59'0 0.0
2018-Jun-14 20:00N 67°08' E 013°59'0 0.0
2018-Jun-14 19:30N 67°08' E 013°59'0 0.0
2018-Jun-14 19:00N 67°08' E 013°59'0 0.0
2018-Jun-14 18:30N 67°08' E 013°59'0 0.0
2018-Jun-14 18:00N 67°08' E 013°59'0 0.0
2018-Jun-14 17:29N 67°08' E 013°59'0 0.0
2018-Jun-14 17:00N 67°08' E 013°59'0 0.0
2018-Jun-14 16:31N 67°08' E 013°59'0 0.0
2018-Jun-14 16:00N 67°08' E 013°59'0 0.0
2018-Jun-14 15:30N 67°08' E 013°59'0 0.0
2018-Jun-14 15:00N 67°08' E 013°59'0 0.0
2018-Jun-14 14:30N 67°08' E 013°59'0 0.0
2018-Jun-14 14:00N 67°08' E 013°59'0 0.0
2018-Jun-14 13:30N 67°08' E 013°59'0 0.0
2018-Jun-14 13:00N 67°08' E 013°59'0 0.0
2018-Jun-14 12:30N 67°08' E 013°59'0 0.0
2018-Jun-14 12:00N 67°08' E 013°59'0 0.0
2018-Jun-14 11:30N 67°08' E 013°59'1 2.4
2018-Jun-14 11:01N 67°07' E 013°59'510.2
2018-Jun-14 10:30N 67°03' E 013°51'510.1
2018-Jun-14 10:00N 67°00' E 013°40'510.2
2018-Jun-14 09:30N 66°57' E 013°29'5 9.2
2018-Jun-14 09:00N 66°53' E 013°24'5 9.8
2018-Jun-14 08:30N 66°50' E 013°16'510.0
2018-Jun-14 08:00N 66°45' E 013°12'5 9.9
2018-Jun-14 07:30N 66°43' E 013°01'5 9.2
2018-Jun-14 07:00N 66°39' E 012°53'4 7.9
2018-Jun-14 06:31N 66°35' E 012°51'0 0.2
2018-Jun-14 05:59N 66°35' E 012°51'0 0.0
2018-Jun-14 05:30N 66°35' E 012°51'0 0.3
2018-Jun-14 05:00N 66°35' E 012°51'2 3.1
2018-Jun-14 04:30N 66°34' E 012°54'1 2.6
2018-Jun-14 04:00N 66°33' E 012°55'2 4.1
2018-Jun-14 03:31N 66°31' E 012°57'2 4.4
2018-Jun-14 03:00N 66°29' E 012°59'2 3.9
2018-Jun-14 02:30N 66°28' E 012°54'2 4.5
2018-Jun-14 02:00N 66°28' E 012°49'2 4.9
2018-Jun-14 01:30N 66°27' E 012°43'2 4.7
2018-Jun-14 01:00N 66°26' E 012°38'2 4.8
2018-Jun-14 00:31N 66°25' E 012°33'2 4.7
2018-Jun-14 00:00N 66°23' E 012°28'3 5.1
2018-Jun-13 23:30N 66°22' E 012°23'0 0.4
2018-Jun-13 23:00N 66°22' E 012°22'0 0.0
2018-Jun-13 22:31N 66°22' E 012°22'0 0.0
2018-Jun-13 22:01N 66°22' E 012°22'0 0.0
2018-Jun-13 21:30N 66°22' E 012°22'0 0.0
2018-Jun-13 21:01N 66°22' E 012°22'0 0.0
2018-Jun-13 20:30N 66°22' E 012°22'2 4.9
2018-Jun-13 20:00N 66°20' E 012°23'5 9.3
2018-Jun-13 19:30N 66°15' E 012°27'5 9.9
2018-Jun-13 19:00N 66°13' E 012°38'510.4
2018-Jun-13 18:30N 66°08' E 012°40'5 9.5
2018-Jun-13 18:00N 66°03' E 012°37'510.1
2018-Jun-13 17:30N 65°59' E 012°30'510.0
2018-Jun-13 17:00N 65°55' E 012°23'5 9.6
2018-Jun-13 16:30N 65°50' E 012°22'3 5.7
2018-Jun-13 16:00N 65°49' E 012°28'3 6.1
2018-Jun-13 15:30N 65°49' E 012°36'1 1.8
2018-Jun-13 15:00N 65°48' E 012°37'0 0.0
2018-Jun-13 14:30N 65°48' E 012°37'0 0.0
2018-Jun-13 14:00N 65°48' E 012°37'2 4.2
2018-Jun-13 13:30N 65°50' E 012°36'510.9
2018-Jun-13 13:00N 65°48' E 012°24'610.9
2018-Jun-13 12:30N 65°53' E 012°22'611.7
2018-Jun-13 12:00N 65°58' E 012°28'510.6
2018-Jun-13 11:30N 66°02' E 012°38'0 0.6
2018-Jun-13 11:00N 66°01' E 012°38'0 0.0
2018-Jun-13 10:30N 66°01' E 012°38'0 0.0
2018-Jun-13 10:00N 66°01' E 012°38'0 0.0
2018-Jun-13 09:31N 66°01' E 012°38'0 0.0
2018-Jun-13 09:00N 66°01' E 012°38'0 0.0
2018-Jun-13 08:30N 66°01' E 012°38'0 0.0
2018-Jun-13 07:59N 66°01' E 012°38'0 0.0
2018-Jun-13 07:30N 66°01' E 012°38'0 0.0
2018-Jun-13 06:59N 66°01' E 012°38'0 0.0
2018-Jun-13 06:30N 66°01' E 012°38'0 0.0
2018-Jun-13 06:00N 66°01' E 012°38'0 0.0
2018-Jun-13 05:31N 66°01' E 012°38'0 0.0
2018-Jun-13 04:59N 66°01' E 012°38'0 0.0
2018-Jun-13 04:30N 66°01' E 012°38'0 0.0
2018-Jun-13 04:00N 66°01' E 012°38'0 0.0
2018-Jun-13 03:30N 66°01' E 012°38'0 0.0
2018-Jun-13 03:00N 66°01' E 012°38'0 0.0
2018-Jun-13 02:30N 66°01' E 012°38'0 0.0
2018-Jun-13 02:00N 66°01' E 012°38'0 0.0
2018-Jun-13 01:30N 66°01' E 012°38'0 0.0
2018-Jun-13 01:00N 66°01' E 012°38'0 0.0
2018-Jun-13 00:31N 66°01' E 012°38'0 0.0
2018-Jun-13 00:00N 66°01' E 012°38'0 0.0
2018-Jun-12 23:30N 66°01' E 012°38'0 0.0
2018-Jun-12 23:00N 66°01' E 012°38'0 0.0
2018-Jun-12 22:30N 66°01' E 012°38'0 0.0
2018-Jun-12 22:00N 66°01' E 012°38'0 0.0
2018-Jun-12 21:30N 66°01' E 012°38'0 0.0
2018-Jun-12 21:00N 66°02' E 012°38'0 0.0
2018-Jun-12 20:30N 66°01' E 012°38'0 0.0
2018-Jun-12 20:00N 66°01' E 012°38'0 0.0
2018-Jun-12 19:30N 66°01' E 012°38'0 0.2
2018-Jun-12 19:00N 66°02' E 012°38'3 5.8
2018-Jun-12 18:29N 66°04' E 012°39'4 8.1
2018-Jun-12 17:59N 66°08' E 012°40'612.1
2018-Jun-12 17:30N 66°14' E 012°35'611.7
2018-Jun-12 17:00N 66°17' E 012°23'5 9.5
2018-Jun-12 16:30N 66°22' E 012°22'0 0.0
2018-Jun-12 16:01N 66°22' E 012°22'0 0.0
2018-Jun-12 15:30N 66°22' E 012°22'0 0.0
2018-Jun-12 15:00N 66°22' E 012°22'0 0.0
2018-Jun-12 14:30N 66°22' E 012°22'0 0.0
2018-Jun-12 14:00N 66°22' E 012°22'0 0.0
2018-Jun-12 13:30N 66°22' E 012°22'0 0.0
2018-Jun-12 13:00N 66°22' E 012°22'2 3.4
2018-Jun-12 12:30N 66°20' E 012°24'5 9.9
2018-Jun-12 12:01N 66°15' E 012°25'510.3
2018-Jun-12 11:30N 66°13' E 012°37'510.4
2018-Jun-12 11:00N 66°08' E 012°40'5 9.9
2018-Jun-12 10:29N 66°03' E 012°37'510.2
2018-Jun-12 10:00N 65°59' E 012°30'510.3
2018-Jun-12 09:29N 65°55' E 012°23'510.1
2018-Jun-12 09:00N 65°50' E 012°22'3 5.7
2018-Jun-12 08:30N 65°49' E 012°29'3 6.0
2018-Jun-12 08:00N 65°49' E 012°36'1 1.5
2018-Jun-12 07:30N 65°48' E 012°37'0 0.0
2018-Jun-12 07:00N 65°48' E 012°37'0 0.0
2018-Jun-12 06:30N 65°48' E 012°37'0 0.3
2018-Jun-12 06:00N 65°49' E 012°37'2 3.3
2018-Jun-12 05:30N 65°50' E 012°35'0 0.0
2018-Jun-12 05:01N 65°50' E 012°35'0 0.0
2018-Jun-12 04:30N 65°50' E 012°35'0 0.0
2018-Jun-12 04:00N 65°50' E 012°35'0 0.0
2018-Jun-12 03:31N 65°50' E 012°35'0 0.0
2018-Jun-12 02:59N 65°50' E 012°35'0 0.0
2018-Jun-12 02:30N 65°50' E 012°35'0 0.0
2018-Jun-12 02:00N 65°50' E 012°35'0 0.0
2018-Jun-12 01:30N 65°50' E 012°35'0 0.0
2018-Jun-12 01:00N 65°50' E 012°35'0 0.0
2018-Jun-12 00:30N 65°50' E 012°35'1 1.9
2018-Jun-12 00:00N 65°50' E 012°33'5 9.3
2018-Jun-11 23:30N 65°48' E 012°22'510.9
2018-Jun-11 23:00N 65°54' E 012°22'510.4
2018-Jun-11 22:30N 65°58' E 012°27'510.8
2018-Jun-11 22:00N 66°03' E 012°36'510.7
2018-Jun-11 21:30N 66°07' E 012°44'510.5
2018-Jun-11 21:00N 66°11' E 012°51'611.3
2018-Jun-11 20:30N 66°16' E 012°55'611.8
2018-Jun-11 20:01N 66°22' E 012°58'611.8
2018-Jun-11 19:30N 66°28' E 012°59'510.4
2018-Jun-11 19:00N 66°33' E 013°02'611.3
2018-Jun-11 18:30N 66°39' E 013°06'611.8
2018-Jun-11 18:00N 66°44' E 013°12'611.5
2018-Jun-11 17:29N 66°48' E 013°24'2 4.2
2018-Jun-11 17:00N 66°49' E 013°28'0 0.0
2018-Jun-11 16:30N 66°49' E 013°28'0 0.0
2018-Jun-11 16:00N 66°49' E 013°28'0 0.2
2018-Jun-11 15:29N 66°49' E 013°28'0 0.0
2018-Jun-11 15:00N 66°49' E 013°28'0 0.0
2018-Jun-11 14:30N 66°49' E 013°28'0 0.1
2018-Jun-11 14:00N 66°49' E 013°28'0 0.0
2018-Jun-11 13:30N 66°49' E 013°28'0 0.0
2018-Jun-11 13:00N 66°49' E 013°28'0 0.0
2018-Jun-11 12:30N 66°49' E 013°28'0 0.0
2018-Jun-11 12:00N 66°49' E 013°28'0 0.0
2018-Jun-11 11:30N 66°49' E 013°28'0 0.1
2018-Jun-11 11:00N 66°49' E 013°28'0 0.0
2018-Jun-11 10:28N 66°49' E 013°28'0 0.2
2018-Jun-11 10:00N 66°49' E 013°28'0 0.0
2018-Jun-11 09:29N 66°49' E 013°28'0 0.0
2018-Jun-11 09:00N 66°49' E 013°28'0 0.0
2018-Jun-11 08:30N 66°49' E 013°28'0 0.0
2018-Jun-11 07:59N 66°49' E 013°28'0 0.0
2018-Jun-11 07:30N 66°49' E 013°28'0 0.0
2018-Jun-11 06:59N 66°49' E 013°28'0 0.0
2018-Jun-11 06:29N 66°49' E 013°28'0 0.0
2018-Jun-11 06:00N 66°49' E 013°28'2 3.5
2018-Jun-11 05:31N 66°48' E 013°24'5 9.3
2018-Jun-11 05:00N 66°45' E 013°15'510.4
2018-Jun-11 04:30N 66°41' E 013°09'510.3
2018-Jun-11 04:00N 66°36' E 013°05'4 9.1
2018-Jun-11 03:30N 66°32' E 012°59'510.5
2018-Jun-11 03:00N 66°27' E 012°60'5 9.8
2018-Jun-11 02:30N 66°22' E 012°58'5 9.6
2018-Jun-11 01:59N 66°17' E 012°56'5 9.4
2018-Jun-11 01:30N 66°13' E 012°53'5 9.4
2018-Jun-11 01:00N 66°08' E 012°48'5 9.7
2018-Jun-11 00:29N 66°05' E 012°39'611.2
2018-Jun-10 23:59N 66°02' E 012°27'4 8.3
2018-Jun-10 23:30N 66°00' E 012°18'0 0.0
2018-Jun-10 22:59N 66°00' E 012°18'0 0.0
2018-Jun-10 22:30N 66°00' E 012°18'0 0.0
2018-Jun-10 22:00N 66°00' E 012°18'0 0.0
2018-Jun-10 21:30N 66°00' E 012°18'0 0.0
2018-Jun-10 21:00N 66°00' E 012°18'0 0.0
2018-Jun-10 20:30N 66°00' E 012°18'0 0.0
2018-Jun-10 19:59N 66°00' E 012°18'0 0.0
2018-Jun-10 19:30N 66°00' E 012°18'0 0.0
2018-Jun-10 19:00N 66°00' E 012°18'0 0.0
2018-Jun-10 18:30N 66°00' E 012°18'0 0.0
2018-Jun-10 18:00N 66°00' E 012°18'0 0.0
2018-Jun-10 17:30N 66°00' E 012°18'0 0.0
2018-Jun-10 17:00N 66°00' E 012°18'0 0.0
2018-Jun-10 16:30N 66°00' E 012°18'0 0.0
2018-Jun-10 16:00N 66°00' E 012°18'0 0.0
2018-Jun-10 15:30N 66°00' E 012°18'0 0.0
2018-Jun-10 15:00N 66°00' E 012°18'0 0.2
2018-Jun-10 14:00N 66°00' E 012°19'4 7.2
2018-Jun-10 13:30N 65°59' E 012°27'611.9
2018-Jun-10 12:59N 65°53' E 012°22'612.1
2018-Jun-10 12:30N 65°48' E 012°24'4 6.8
2018-Jun-10 11:58N 65°46' E 012°32'2 3.4
2018-Jun-10 11:30N 65°47' E 012°36'0 0.0
2018-Jun-10 10:59N 65°47' E 012°36'0 0.0
2018-Jun-10 10:30N 65°47' E 012°36'0 0.2
2018-Jun-10 10:00N 65°47' E 012°35'0 0.1
2018-Jun-10 09:30N 65°47' E 012°35'0 0.0
2018-Jun-10 09:00N 65°47' E 012°35'0 0.0
2018-Jun-10 08:30N 65°47' E 012°35'0 0.4
2018-Jun-10 08:00N 65°47' E 012°35'3 5.5
2018-Jun-10 07:30N 65°50' E 012°35'0 0.0
2018-Jun-10 07:00N 65°50' E 012°35'0 0.0
2018-Jun-10 06:30N 65°50' E 012°35'0 0.0
2018-Jun-10 06:00N 65°50' E 012°35'0 0.0
2018-Jun-10 05:30N 65°50' E 012°35'0 0.0
2018-Jun-10 05:00N 65°50' E 012°35'0 0.0
2018-Jun-10 04:30N 65°50' E 012°35'0 0.0
2018-Jun-10 04:00N 65°50' E 012°35'0 0.0
2018-Jun-10 03:31N 65°50' E 012°35'0 0.0
2018-Jun-10 03:00N 65°50' E 012°35'2 4.7
2018-Jun-10 02:30N 65°49' E 012°29'3 6.6
2018-Jun-10 02:00N 65°50' E 012°22'510.7
2018-Jun-10 01:30N 65°56' E 012°23'510.3
2018-Jun-10 01:01N 65°60' E 012°30'510.3
2018-Jun-10 00:30N 66°04' E 012°38'510.3
2018-Jun-10 00:00N 66°08' E 012°46'510.3
2018-Jun-09 23:30N 66°12' E 012°52'510.5
2018-Jun-09 23:00N 66°17' E 012°56'510.4
2018-Jun-09 22:30N 66°22' E 013°01'4 7.1
2018-Jun-09 22:00N 66°24' E 013°08'4 8.6
2018-Jun-09 21:30N 66°28' E 013°03'5 9.5
2018-Jun-09 21:00N 66°32' E 012°60'4 7.5
2018-Jun-09 20:30N 66°35' E 013°06'0 0.1
2018-Jun-09 20:00N 66°35' E 013°06'0 0.0
2018-Jun-09 19:30N 66°35' E 013°06'0 0.4
2018-Jun-09 19:00N 66°35' E 013°05'0 0.4
2018-Jun-09 18:28N 66°35' E 013°06'0 0.0
2018-Jun-09 18:00N 66°35' E 013°06'0 0.0
2018-Jun-09 17:30N 66°35' E 013°06'0 0.0
2018-Jun-09 17:00N 66°35' E 013°06'0 0.0
2018-Jun-09 16:30N 66°35' E 013°06'0 0.0
2018-Jun-09 16:00N 66°35' E 013°06'0 0.2
2018-Jun-09 15:30N 66°35' E 013°06'0 0.1
2018-Jun-09 14:30N 66°35' E 013°06'0 0.3
2018-Jun-09 14:00N 66°35' E 013°06'0 0.0
2018-Jun-09 13:30N 66°35' E 013°06'0 0.0
2018-Jun-09 13:00N 66°35' E 013°06'0 0.0
2018-Jun-09 12:30N 66°35' E 013°06'0 0.0
2018-Jun-09 12:00N 66°35' E 013°06'0 0.0
2018-Jun-09 11:30N 66°35' E 013°06'1 1.1
2018-Jun-09 11:00N 66°36' E 013°05'3 6.7
2018-Jun-09 10:30N 66°39' E 013°06'4 7.4
2018-Jun-09 09:59N 66°43' E 013°09'4 8.4
2018-Jun-09 09:30N 66°46' E 013°13'4 8.5
2018-Jun-09 09:00N 66°50' E 013°17'510.6
2018-Jun-09 08:30N 66°54' E 013°27'510.4
2018-Jun-09 08:01N 66°58' E 013°34'611.7
2018-Jun-09 07:30N 67°02' E 013°46'611.3
2018-Jun-09 07:00N 67°06' E 013°56'3 5.5
2018-Jun-09 06:31N 67°08' E 013°59'0 0.0
2018-Jun-09 06:00N 67°08' E 013°59'0 0.0
2018-Jun-09 05:30N 67°08' E 013°59'0 0.0
2018-Jun-09 05:00N 67°08' E 013°59'1 1.9
2018-Jun-09 04:31N 67°08' E 014°01'5 9.4
2018-Jun-09 04:00N 67°11' E 014°09'510.2
2018-Jun-09 03:30N 67°13' E 014°21'510.1
2018-Jun-09 03:00N 67°15' E 014°33'4 8.0
2018-Jun-09 02:30N 67°13' E 014°43'3 7.0
2018-Jun-09 02:01N 67°15' E 014°50'3 6.6
2018-Jun-09 01:30N 67°16' E 014°59'4 6.9
2018-Jun-09 01:00N 67°15' E 015°07'4 7.7
2018-Jun-09 00:30N 67°13' E 015°17'2 3.2
2018-Jun-09 00:00N 67°14' E 015°21'0 0.0
2018-Jun-08 23:29N 67°14' E 015°21'0 0.0
2018-Jun-08 23:00N 67°14' E 015°21'0 0.2
2018-Jun-08 22:29N 67°14' E 015°21'4 7.6
2018-Jun-08 22:00N 67°14' E 015°12'611.9
2018-Jun-08 21:30N 67°16' E 014°57'611.4
2018-Jun-08 21:00N 67°14' E 014°44'4 8.6
2018-Jun-08 20:31N 67°15' E 014°33'4 8.2
2018-Jun-08 20:01N 67°14' E 014°23'3 6.8
2018-Jun-08 19:30N 67°12' E 014°15'510.8
2018-Jun-08 19:00N 67°10' E 014°03'2 4.3
2018-Jun-08 18:30N 67°08' E 013°59'0 0.0
2018-Jun-08 18:00N 67°08' E 013°59'0 0.0
2018-Jun-08 17:30N 67°08' E 013°59'  
Track history (hours):
 
Tides and Currents Weather Stations Pressure Air Temp Water Temp Dewpoint Dewpoint Depression Visibility Wind Speed Wind Dir Waves Ship Positions

Steinar Olaisen

Last reported at 2018-Jun-18 17:30 UTC. Time now 2018-Jun-18 17:34 UTC.
Position N 66°49' E 013°36'.

Length 80 m; draft 7 m.

Type: Cargo ship. MMSI: 258489000.

Date/timePositionNaut miles runAvg speedWind from/ knotsBaromVisibWave heightAir tempDewpointWater temp
2018-Jun-18 17:30N 66°49' E 013°36'3 5.9
2018-Jun-18 17:00N 66°49' E 013°29'0 0.9
2018-Jun-18 16:28N 66°48' E 013°27'0 0.4
2018-Jun-18 16:00N 66°49' E 013°28'1 1.3
2018-Jun-18 15:30N 66°49' E 013°29'0 0.3
2018-Jun-18 15:00N 66°49' E 013°29'1 1.4
2018-Jun-18 14:30N 66°49' E 013°28'0 0.2
2018-Jun-18 14:00N 66°49' E 013°28'0 0.0
2018-Jun-18 13:30N 66°49' E 013°28'0 0.2
2018-Jun-18 13:00N 66°49' E 013°28'0 0.3
2018-Jun-18 12:30N 66°49' E 013°28'0 0.0
2018-Jun-18 12:00N 66°49' E 013°28'0 0.0
2018-Jun-18 11:30N 66°49' E 013°28'0 0.0
2018-Jun-18 11:00N 66°49' E 013°28'0 0.0
2018-Jun-18 10:30N 66°49' E 013°28'0 0.0
2018-Jun-18 10:00N 66°49' E 013°28'0 0.0
2018-Jun-18 09:30N 66°49' E 013°28'0 0.0
2018-Jun-18 09:00N 66°49' E 013°28'0 0.0
2018-Jun-18 08:30N 66°49' E 013°28'0 0.0
2018-Jun-18 08:00N 66°49' E 013°28'0 0.0
2018-Jun-18 07:29N 66°49' E 013°28'0 0.0
2018-Jun-18 07:00N 66°49' E 013°28'0 0.0
2018-Jun-18 06:30N 66°49' E 013°28'0 0.0
2018-Jun-18 05:59N 66°49' E 013°28'1 2.6
2018-Jun-18 05:30N 66°49' E 013°31'4 8.5
2018-Jun-18 05:00N 66°54' E 013°31'4 8.8
2018-Jun-18 04:30N 66°58' E 013°31'5 9.9
2018-Jun-18 04:00N 67°01' E 013°42'5 9.7
2018-Jun-18 03:30N 67°03' E 013°52'5 9.7
2018-Jun-18 03:01N 67°07' E 014°00'5 9.1
2018-Jun-18 02:31N 67°11' E 014°06'5 9.7
2018-Jun-18 02:00N 67°15' E 014°14'4 8.1
2018-Jun-18 01:30N 67°17' E 014°23'0 0.0
2018-Jun-18 01:00N 67°17' E 014°23'0 0.0
2018-Jun-18 00:30N 67°17' E 014°23'0 0.0
2018-Jun-18 00:00N 67°17' E 014°23'0 0.0
2018-Jun-17 23:30N 67°17' E 014°23'0 0.0
2018-Jun-17 23:00N 67°17' E 014°23'0 0.0
2018-Jun-17 22:30N 67°17' E 014°23'0 0.0
2018-Jun-17 22:00N 67°17' E 014°23'0 0.0
2018-Jun-17 21:30N 67°17' E 014°23'0 0.0
2018-Jun-17 21:00N 67°17' E 014°23'0 0.0
2018-Jun-17 20:30N 67°17' E 014°23'0 0.0
2018-Jun-17 20:00N 67°17' E 014°23'0 0.0
2018-Jun-17 19:30N 67°17' E 014°23'0 0.0
2018-Jun-17 19:00N 67°17' E 014°23'0 0.0
2018-Jun-17 18:30N 67°17' E 014°23'0 0.0
2018-Jun-17 18:00N 67°17' E 014°23'0 0.0
2018-Jun-17 17:30N 67°17' E 014°23'0 0.0
2018-Jun-17 17:00N 67°17' E 014°23'0 0.0
2018-Jun-17 16:30N 67°17' E 014°23'0 0.0
2018-Jun-17 16:00N 67°17' E 014°23'0 0.0
2018-Jun-17 15:30N 67°17' E 014°23'0 0.0
2018-Jun-17 15:00N 67°17' E 014°23'0 0.0
2018-Jun-17 14:30N 67°17' E 014°23'0 0.0
2018-Jun-17 14:00N 67°17' E 014°23'0 0.0
2018-Jun-17 13:30N 67°17' E 014°23'0 0.0
2018-Jun-17 13:00N 67°17' E 014°23'0 0.0
2018-Jun-17 12:30N 67°17' E 014°23'0 0.0
2018-Jun-17 12:00N 67°17' E 014°23'0 0.0
2018-Jun-17 11:30N 67°17' E 014°23'0 0.0
2018-Jun-17 11:00N 67°17' E 014°23'0 0.0
2018-Jun-17 10:30N 67°17' E 014°23'0 0.0
2018-Jun-17 10:00N 67°17' E 014°23'0 0.0
2018-Jun-17 09:30N 67°17' E 014°23'0 0.0
2018-Jun-17 09:00N 67°17' E 014°23'0 0.0
2018-Jun-17 08:30N 67°17' E 014°23'0 0.0
2018-Jun-17 08:00N 67°17' E 014°23'0 0.0
2018-Jun-17 07:30N 67°17' E 014°23'0 0.0
2018-Jun-17 07:00N 67°17' E 014°23'0 0.0
2018-Jun-17 06:30N 67°17' E 014°23'0 0.0
2018-Jun-17 06:00N 67°17' E 014°23'0 0.0
2018-Jun-17 05:30N 67°17' E 014°23'0 0.0
2018-Jun-17 05:00N 67°17' E 014°23'0 0.0
2018-Jun-17 04:30N 67°17' E 014°23'0 0.0
2018-Jun-17 04:00N 67°17' E 014°23'0 0.0
2018-Jun-17 03:30N 67°17' E 014°23'0 0.9
2018-Jun-17 03:01N 67°17' E 014°22'4 8.1
2018-Jun-17 02:30N 67°15' E 014°12'4 7.8
2018-Jun-17 02:00N 67°12' E 014°07'4 8.8
2018-Jun-17 01:30N 67°08' E 014°02'1 2.0
2018-Jun-17 01:01N 67°08' E 013°59'0 0.0
2018-Jun-17 00:30N 67°08' E 013°59'0 0.0
2018-Jun-17 00:00N 67°08' E 013°59'0 0.0
2018-Jun-16 23:30N 67°08' E 013°59'1 2.0
2018-Jun-16 23:01N 67°08' E 014°01'5 9.6
2018-Jun-16 22:30N 67°11' E 014°09'611.1
2018-Jun-16 22:00N 67°13' E 014°22'511.0
2018-Jun-16 21:31N 67°15' E 014°36'4 7.6
2018-Jun-16 21:00N 67°14' E 014°46'1 2.3
2018-Jun-16 20:29N 67°15' E 014°49'0 1.0
2018-Jun-16 20:00N 67°15' E 014°48'4 8.6
2018-Jun-16 19:31N 67°16' E 014°59'4 8.2
2018-Jun-16 19:00N 67°15' E 015°09'4 8.1
2018-Jun-16 18:30N 67°13' E 015°19'1 1.8
2018-Jun-16 18:00N 67°14' E 015°21'0 0.0
2018-Jun-16 17:30N 67°14' E 015°21'0 0.0
2018-Jun-16 17:00N 67°14' E 015°21'0 0.0
2018-Jun-16 16:29N 67°14' E 015°21'0 0.3
2018-Jun-16 16:00N 67°14' E 015°21'2 4.7
2018-Jun-16 15:30N 67°15' E 015°25'0 0.0
2018-Jun-16 15:00N 67°15' E 015°25'0 0.0
2018-Jun-16 14:30N 67°15' E 015°25'0 0.0
2018-Jun-16 14:00N 67°15' E 015°25'0 0.0
2018-Jun-16 13:30N 67°15' E 015°25'0 0.0
2018-Jun-16 13:00N 67°15' E 015°25'0 0.0
2018-Jun-16 12:30N 67°15' E 015°25'0 0.0
2018-Jun-16 12:00N 67°15' E 015°25'0 0.0
2018-Jun-16 11:29N 67°15' E 015°25'0 0.0
2018-Jun-16 11:00N 67°15' E 015°25'0 0.0
2018-Jun-16 10:31N 67°15' E 015°25'0 0.0
2018-Jun-16 10:00N 67°15' E 015°25'0 0.0
2018-Jun-16 09:30N 67°15' E 015°25'0 0.0
2018-Jun-16 09:00N 67°15' E 015°25'0 0.0
2018-Jun-16 08:30N 67°15' E 015°25'0 0.0
2018-Jun-16 07:59N 67°15' E 015°25'0 0.0
2018-Jun-16 07:30N 67°15' E 015°25'0 0.0
2018-Jun-16 07:00N 67°15' E 015°25'0 0.0
2018-Jun-16 06:29N 67°15' E 015°25'0 0.0
2018-Jun-16 06:00N 67°15' E 015°25'0 0.0
2018-Jun-16 05:30N 67°15' E 015°25'0 0.0
2018-Jun-16 05:00N 67°15' E 015°25'0 0.0
2018-Jun-16 04:30N 67°15' E 015°25'0 0.0
2018-Jun-16 04:01N 67°15' E 015°25'0 0.0
2018-Jun-16 03:31N 67°15' E 015°25'0 0.0
2018-Jun-16 03:00N 67°15' E 015°25'0 0.0
2018-Jun-16 02:30N 67°15' E 015°25'0 0.0
2018-Jun-16 02:00N 67°15' E 015°25'0 0.0
2018-Jun-16 01:30N 67°15' E 015°25'0 0.0
2018-Jun-16 01:00N 67°15' E 015°25'0 0.0
2018-Jun-16 00:30N 67°15' E 015°25'0 0.0
2018-Jun-16 00:00N 67°15' E 015°25'2 3.9
2018-Jun-15 23:30N 67°14' E 015°21'3 7.0
2018-Jun-15 23:01N 67°11' E 015°26'5 9.1
2018-Jun-15 22:30N 67°13' E 015°15'4 8.7
2018-Jun-15 22:00N 67°15' E 015°04'4 8.1
2018-Jun-15 21:30N 67°16' E 014°54'510.3
2018-Jun-15 21:00N 67°13' E 014°43'4 7.5
2018-Jun-15 20:31N 67°15' E 014°35'3 5.2
2018-Jun-15 20:00N 67°15' E 014°28'3 6.7
2018-Jun-15 19:30N 67°15' E 014°19'3 5.8
2018-Jun-15 19:00N 67°17' E 014°14'4 8.8
2018-Jun-15 18:31N 67°20' E 014°22'4 7.6
2018-Jun-15 18:00N 67°23' E 014°28'4 8.4
2018-Jun-15 17:31N 67°26' E 014°35'3 5.6
2018-Jun-15 17:00N 67°27' E 014°43'0 0.2
2018-Jun-15 16:30N 67°27' E 014°43'0 0.0
2018-Jun-15 16:00N 67°27' E 014°43'0 0.0
2018-Jun-15 15:30N 67°27' E 014°43'0 0.0
2018-Jun-15 15:00N 67°27' E 014°43'0 0.0
2018-Jun-15 14:29N 67°27' E 014°43'0 0.0
2018-Jun-15 14:00N 67°27' E 014°43'0 0.0
2018-Jun-15 13:30N 67°27' E 014°43'0 0.0
2018-Jun-15 13:00N 67°27' E 014°43'0 0.0
2018-Jun-15 12:30N 67°27' E 014°43'0 0.0
2018-Jun-15 12:00N 67°27' E 014°43'0 0.0
2018-Jun-15 11:30N 67°27' E 014°43'0 0.0
2018-Jun-15 11:01N 67°27' E 014°43'0 0.0
2018-Jun-15 10:30N 67°27' E 014°43'0 0.0
2018-Jun-15 10:00N 67°27' E 014°43'0 0.0
2018-Jun-15 09:31N 67°27' E 014°43'0 0.0
2018-Jun-15 09:00N 67°27' E 014°43'0 0.0
2018-Jun-15 08:30N 67°27' E 014°43'0 0.0
2018-Jun-15 08:00N 67°27' E 014°43'0 0.0
2018-Jun-15 07:30N 67°27' E 014°43'0 0.0
2018-Jun-15 07:00N 67°27' E 014°43'0 0.0
2018-Jun-15 06:30N 67°27' E 014°43'0 0.0
2018-Jun-15 06:00N 67°27' E 014°43'0 0.0
2018-Jun-15 05:30N 67°27' E 014°43'1 2.1
2018-Jun-15 05:00N 67°27' E 014°40'1 2.6
2018-Jun-15 04:30N 67°27' E 014°37'2 4.6
2018-Jun-15 04:01N 67°25' E 014°33'3 6.9
2018-Jun-15 03:30N 67°22' E 014°27'3 6.7
2018-Jun-15 03:01N 67°20' E 014°21'3 6.7
2018-Jun-15 02:30N 67°17' E 014°16'4 7.1
2018-Jun-15 02:01N 67°14' E 014°11'4 7.5
2018-Jun-15 01:30N 67°11' E 014°05'4 8.6
2018-Jun-15 01:01N 67°07' E 014°01'1 2.3
2018-Jun-15 00:30N 67°08' E 013°59'0 0.0
2018-Jun-15 00:01N 67°08' E 013°59'0 0.0
2018-Jun-14 23:30N 67°08' E 013°59'0 0.0
2018-Jun-14 23:01N 67°08' E 013°59'0 0.0
2018-Jun-14 22:30N 67°08' E 013°59'0 0.0
2018-Jun-14 22:00N 67°08' E 013°59'0 0.0
2018-Jun-14 21:30N 67°08' E 013°59'0 0.0
2018-Jun-14 21:01N 67°08' E 013°59'0 0.0
2018-Jun-14 20:30N 67°08' E 013°59'0 0.0
2018-Jun-14 20:00N 67°08' E 013°59'0 0.0
2018-Jun-14 19:30N 67°08' E 013°59'0 0.0
2018-Jun-14 19:00N 67°08' E 013°59'0 0.0
2018-Jun-14 18:30N 67°08' E 013°59'0 0.0
2018-Jun-14 18:00N 67°08' E 013°59'0 0.0
2018-Jun-14 17:29N 67°08' E 013°59'0 0.0
2018-Jun-14 17:00N 67°08' E 013°59'0 0.0
2018-Jun-14 16:31N 67°08' E 013°59'0 0.0
2018-Jun-14 16:00N 67°08' E 013°59'0 0.0
2018-Jun-14 15:30N 67°08' E 013°59'0 0.0
2018-Jun-14 15:00N 67°08' E 013°59'0 0.0
2018-Jun-14 14:30N 67°08' E 013°59'0 0.0
2018-Jun-14 14:00N 67°08' E 013°59'0 0.0
2018-Jun-14 13:30N 67°08' E 013°59'0 0.0
2018-Jun-14 13:00N 67°08' E 013°59'0 0.0
2018-Jun-14 12:30N 67°08' E 013°59'0 0.0
2018-Jun-14 12:00N 67°08' E 013°59'0 0.0
2018-Jun-14 11:30N 67°08' E 013°59'1 2.4
2018-Jun-14 11:01N 67°07' E 013°59'510.2
2018-Jun-14 10:30N 67°03' E 013°51'510.1
2018-Jun-14 10:00N 67°00' E 013°40'510.2
2018-Jun-14 09:30N 66°57' E 013°29'5 9.2
2018-Jun-14 09:00N 66°53' E 013°24'5 9.8
2018-Jun-14 08:30N 66°50' E 013°16'510.0
2018-Jun-14 08:00N 66°45' E 013°12'5 9.9
2018-Jun-14 07:30N 66°43' E 013°01'5 9.2
2018-Jun-14 07:00N 66°39' E 012°53'4 7.9
2018-Jun-14 06:31N 66°35' E 012°51'0 0.2
2018-Jun-14 05:59N 66°35' E 012°51'0 0.0
2018-Jun-14 05:30N 66°35' E 012°51'0 0.3
2018-Jun-14 05:00N 66°35' E 012°51'2 3.1
2018-Jun-14 04:30N 66°34' E 012°54'1 2.6
2018-Jun-14 04:00N 66°33' E 012°55'2 4.1
2018-Jun-14 03:31N 66°31' E 012°57'2 4.4
2018-Jun-14 03:00N 66°29' E 012°59'2 3.9
2018-Jun-14 02:30N 66°28' E 012°54'2 4.5
2018-Jun-14 02:00N 66°28' E 012°49'2 4.9
2018-Jun-14 01:30N 66°27' E 012°43'2 4.7
2018-Jun-14 01:00N 66°26' E 012°38'2 4.8
2018-Jun-14 00:31N 66°25' E 012°33'2 4.7
2018-Jun-14 00:00N 66°23' E 012°28'3 5.1
2018-Jun-13 23:30N 66°22' E 012°23'0 0.4
2018-Jun-13 23:00N 66°22' E 012°22'0 0.0
2018-Jun-13 22:31N 66°22' E 012°22'0 0.0
2018-Jun-13 22:01N 66°22' E 012°22'0 0.0
2018-Jun-13 21:30N 66°22' E 012°22'0 0.0
2018-Jun-13 21:01N 66°22' E 012°22'0 0.0
2018-Jun-13 20:30N 66°22' E 012°22'2 4.9
2018-Jun-13 20:00N 66°20' E 012°23'5 9.3
2018-Jun-13 19:30N 66°15' E 012°27'5 9.9
2018-Jun-13 19:00N 66°13' E 012°38'510.4
2018-Jun-13 18:30N 66°08' E 012°40'5 9.5
2018-Jun-13 18:00N 66°03' E 012°37'510.1
2018-Jun-13 17:30N 65°59' E 012°30'510.0
2018-Jun-13 17:00N 65°55' E 012°23'5 9.6
2018-Jun-13 16:30N 65°50' E 012°22'3 5.7
2018-Jun-13 16:00N 65°49' E 012°28'3 6.1
2018-Jun-13 15:30N 65°49' E 012°36'1 1.8
2018-Jun-13 15:00N 65°48' E 012°37'0 0.0
2018-Jun-13 14:30N 65°48' E 012°37'0 0.0
2018-Jun-13 14:00N 65°48' E 012°37'2 4.2
2018-Jun-13 13:30N 65°50' E 012°36'510.9
2018-Jun-13 13:00N 65°48' E 012°24'610.9
2018-Jun-13 12:30N 65°53' E 012°22'611.7
2018-Jun-13 12:00N 65°58' E 012°28'510.6
2018-Jun-13 11:30N 66°02' E 012°38'0 0.6
2018-Jun-13 11:00N 66°01' E 012°38'0 0.0
2018-Jun-13 10:30N 66°01' E 012°38'0 0.0
2018-Jun-13 10:00N 66°01' E 012°38'0 0.0
2018-Jun-13 09:31N 66°01' E 012°38'0 0.0
2018-Jun-13 09:00N 66°01' E 012°38'0 0.0
2018-Jun-13 08:30N 66°01' E 012°38'0 0.0
2018-Jun-13 07:59N 66°01' E 012°38'0 0.0
2018-Jun-13 07:30N 66°01' E 012°38'0 0.0
2018-Jun-13 06:59N 66°01' E 012°38'0 0.0
2018-Jun-13 06:30N 66°01' E 012°38'0 0.0
2018-Jun-13 06:00N 66°01' E 012°38'0 0.0
2018-Jun-13 05:31N 66°01' E 012°38'0 0.0
2018-Jun-13 04:59N 66°01' E 012°38'0 0.0
2018-Jun-13 04:30N 66°01' E 012°38'0 0.0
2018-Jun-13 04:00N 66°01' E 012°38'0 0.0
2018-Jun-13 03:30N 66°01' E 012°38'0 0.0
2018-Jun-13 03:00N 66°01' E 012°38'0 0.0
2018-Jun-13 02:30N 66°01' E 012°38'0 0.0
2018-Jun-13 02:00N 66°01' E 012°38'0 0.0
2018-Jun-13 01:30N 66°01' E 012°38'0 0.0
2018-Jun-13 01:00N 66°01' E 012°38'0 0.0
2018-Jun-13 00:31N 66°01' E 012°38'0 0.0
2018-Jun-13 00:00N 66°01' E 012°38'0 0.0
2018-Jun-12 23:30N 66°01' E 012°38'0 0.0
2018-Jun-12 23:00N 66°01' E 012°38'0 0.0
2018-Jun-12 22:30N 66°01' E 012°38'0 0.0
2018-Jun-12 22:00N 66°01' E 012°38'0 0.0
2018-Jun-12 21:30N 66°01' E 012°38'0 0.0
2018-Jun-12 21:00N 66°02' E 012°38'0 0.0
2018-Jun-12 20:30N 66°01' E 012°38'0 0.0
2018-Jun-12 20:00N 66°01' E 012°38'0 0.0
2018-Jun-12 19:30N 66°01' E 012°38'0 0.2
2018-Jun-12 19:00N 66°02' E 012°38'3 5.8
2018-Jun-12 18:29N 66°04' E 012°39'4 8.1
2018-Jun-12 17:59N 66°08' E 012°40'612.1
2018-Jun-12 17:30N 66°14' E 012°35'611.7
2018-Jun-12 17:00N 66°17' E 012°23'5 9.5
2018-Jun-12 16:30N 66°22' E 012°22'0 0.0
2018-Jun-12 16:01N 66°22' E 012°22'0 0.0
2018-Jun-12 15:30N 66°22' E 012°22'0 0.0
2018-Jun-12 15:00N 66°22' E 012°22'0 0.0
2018-Jun-12 14:30N 66°22' E 012°22'0 0.0
2018-Jun-12 14:00N 66°22' E 012°22'0 0.0
2018-Jun-12 13:30N 66°22' E 012°22'0 0.0
2018-Jun-12 13:00N 66°22' E 012°22'2 3.4
2018-Jun-12 12:30N 66°20' E 012°24'5 9.9
2018-Jun-12 12:01N 66°15' E 012°25'510.3
2018-Jun-12 11:30N 66°13' E 012°37'510.4
2018-Jun-12 11:00N 66°08' E 012°40'5 9.9
2018-Jun-12 10:29N 66°03' E 012°37'510.2
2018-Jun-12 10:00N 65°59' E 012°30'510.3
2018-Jun-12 09:29N 65°55' E 012°23'510.1
2018-Jun-12 09:00N 65°50' E 012°22'3 5.7
2018-Jun-12 08:30N 65°49' E 012°29'3 6.0
2018-Jun-12 08:00N 65°49' E 012°36'1 1.5
2018-Jun-12 07:30N 65°48' E 012°37'0 0.0
2018-Jun-12 07:00N 65°48' E 012°37'0 0.0
2018-Jun-12 06:30N 65°48' E 012°37'0 0.3
2018-Jun-12 06:00N 65°49' E 012°37'2 3.3
2018-Jun-12 05:30N 65°50' E 012°35'0 0.0
2018-Jun-12 05:01N 65°50' E 012°35'0 0.0
2018-Jun-12 04:30N 65°50' E 012°35'0 0.0
2018-Jun-12 04:00N 65°50' E 012°35'0 0.0
2018-Jun-12 03:31N 65°50' E 012°35'0 0.0
2018-Jun-12 02:59N 65°50' E 012°35'0 0.0
2018-Jun-12 02:30N 65°50' E 012°35'0 0.0
2018-Jun-12 02:00N 65°50' E 012°35'0 0.0
2018-Jun-12 01:30N 65°50' E 012°35'0 0.0
2018-Jun-12 01:00N 65°50' E 012°35'0 0.0
2018-Jun-12 00:30N 65°50' E 012°35'1 1.9
2018-Jun-12 00:00N 65°50' E 012°33'5 9.3
2018-Jun-11 23:30N 65°48' E 012°22'510.9
2018-Jun-11 23:00N 65°54' E 012°22'510.4
2018-Jun-11 22:30N 65°58' E 012°27'510.8
2018-Jun-11 22:00N 66°03' E 012°36'510.7
2018-Jun-11 21:30N 66°07' E 012°44'510.5
2018-Jun-11 21:00N 66°11' E 012°51'611.3
2018-Jun-11 20:30N 66°16' E 012°55'611.8
2018-Jun-11 20:01N 66°22' E 012°58'611.8
2018-Jun-11 19:30N 66°28' E 012°59'510.4
2018-Jun-11 19:00N 66°33' E 013°02'611.3
2018-Jun-11 18:30N 66°39' E 013°06'611.8
2018-Jun-11 18:00N 66°44' E 013°12'611.5
2018-Jun-11 17:29N 66°48' E 013°24'2 4.2
2018-Jun-11 17:00N 66°49' E 013°28'0 0.0
2018-Jun-11 16:30N 66°49' E 013°28'0 0.0
2018-Jun-11 16:00N 66°49' E 013°28'0 0.2
2018-Jun-11 15:29N 66°49' E 013°28'0 0.0
2018-Jun-11 15:00N 66°49' E 013°28'0 0.0
2018-Jun-11 14:30N 66°49' E 013°28'0 0.1
2018-Jun-11 14:00N 66°49' E 013°28'0 0.0
2018-Jun-11 13:30N 66°49' E 013°28'0 0.0
2018-Jun-11 13:00N 66°49' E 013°28'0 0.0
2018-Jun-11 12:30N 66°49' E 013°28'0 0.0
2018-Jun-11 12:00N 66°49' E 013°28'0 0.0
2018-Jun-11 11:30N 66°49' E 013°28'0 0.1
2018-Jun-11 11:00N 66°49' E 013°28'0 0.0
2018-Jun-11 10:28N 66°49' E 013°28'0 0.2
2018-Jun-11 10:00N 66°49' E 013°28'0 0.0
2018-Jun-11 09:29N 66°49' E 013°28'0 0.0
2018-Jun-11 09:00N 66°49' E 013°28'0 0.0
2018-Jun-11 08:30N 66°49' E 013°28'0 0.0
2018-Jun-11 07:59N 66°49' E 013°28'0 0.0
2018-Jun-11 07:30N 66°49' E 013°28'0 0.0
2018-Jun-11 06:59N 66°49' E 013°28'0 0.0
2018-Jun-11 06:29N 66°49' E 013°28'0 0.0
2018-Jun-11 06:00N 66°49' E 013°28'2 3.5
2018-Jun-11 05:31N 66°48' E 013°24'5 9.3
2018-Jun-11 05:00N 66°45' E 013°15'510.4
2018-Jun-11 04:30N 66°41' E 013°09'510.3
2018-Jun-11 04:00N 66°36' E 013°05'4 9.1
2018-Jun-11 03:30N 66°32' E 012°59'510.5
2018-Jun-11 03:00N 66°27' E 012°60'5 9.8
2018-Jun-11 02:30N 66°22' E 012°58'5 9.6
2018-Jun-11 01:59N 66°17' E 012°56'5 9.4
2018-Jun-11 01:30N 66°13' E 012°53'5 9.4
2018-Jun-11 01:00N 66°08' E 012°48'5 9.7
2018-Jun-11 00:29N 66°05' E 012°39'611.2
2018-Jun-10 23:59N 66°02' E 012°27'4 8.3
2018-Jun-10 23:30N 66°00' E 012°18'0 0.0
2018-Jun-10 22:59N 66°00' E 012°18'0 0.0
2018-Jun-10 22:30N 66°00' E 012°18'0 0.0
2018-Jun-10 22:00N 66°00' E 012°18'0 0.0
2018-Jun-10 21:30N 66°00' E 012°18'0 0.0
2018-Jun-10 21:00N 66°00' E 012°18'0 0.0
2018-Jun-10 20:30N 66°00' E 012°18'0 0.0
2018-Jun-10 19:59N 66°00' E 012°18'0 0.0
2018-Jun-10 19:30N 66°00' E 012°18'0 0.0
2018-Jun-10 19:00N 66°00' E 012°18'0 0.0
2018-Jun-10 18:30N 66°00' E 012°18'0 0.0
2018-Jun-10 18:00N 66°00' E 012°18'0 0.0
2018-Jun-10 17:30N 66°00' E 012°18'0 0.0
2018-Jun-10 17:00N 66°00' E 012°18'0 0.0
2018-Jun-10 16:30N 66°00' E 012°18'0 0.0
2018-Jun-10 16:00N 66°00' E 012°18'0 0.0
2018-Jun-10 15:30N 66°00' E 012°18'0 0.0
2018-Jun-10 15:00N 66°00' E 012°18'0 0.2
2018-Jun-10 14:00N 66°00' E 012°19'4 7.2
2018-Jun-10 13:30N 65°59' E 012°27'611.9
2018-Jun-10 12:59N 65°53' E 012°22'612.1
2018-Jun-10 12:30N 65°48' E 012°24'4 6.8
2018-Jun-10 11:58N 65°46' E 012°32'2 3.4
2018-Jun-10 11:30N 65°47' E 012°36'0 0.0
2018-Jun-10 10:59N 65°47' E 012°36'0 0.0
2018-Jun-10 10:30N 65°47' E 012°36'0 0.2
2018-Jun-10 10:00N 65°47' E 012°35'0 0.1
2018-Jun-10 09:30N 65°47' E 012°35'0 0.0
2018-Jun-10 09:00N 65°47' E 012°35'0 0.0
2018-Jun-10 08:30N 65°47' E 012°35'0 0.4
2018-Jun-10 08:00N 65°47' E 012°35'3 5.5
2018-Jun-10 07:30N 65°50' E 012°35'0 0.0
2018-Jun-10 07:00N 65°50' E 012°35'0 0.0
2018-Jun-10 06:30N 65°50' E 012°35'0 0.0
2018-Jun-10 06:00N 65°50' E 012°35'0 0.0
2018-Jun-10 05:30N 65°50' E 012°35'0 0.0
2018-Jun-10 05:00N 65°50' E 012°35'0 0.0
2018-Jun-10 04:30N 65°50' E 012°35'0 0.0
2018-Jun-10 04:00N 65°50' E 012°35'0 0.0
2018-Jun-10 03:31N 65°50' E 012°35'0 0.0
2018-Jun-10 03:00N 65°50' E 012°35'2 4.7
2018-Jun-10 02:30N 65°49' E 012°29'3 6.6
2018-Jun-10 02:00N 65°50' E 012°22'510.7
2018-Jun-10 01:30N 65°56' E 012°23'510.3
2018-Jun-10 01:01N 65°60' E 012°30'510.3
2018-Jun-10 00:30N 66°04' E 012°38'510.3
2018-Jun-10 00:00N 66°08' E 012°46'510.3
2018-Jun-09 23:30N 66°12' E 012°52'510.5
2018-Jun-09 23:00N 66°17' E 012°56'510.4
2018-Jun-09 22:30N 66°22' E 013°01'4 7.1
2018-Jun-09 22:00N 66°24' E 013°08'4 8.6
2018-Jun-09 21:30N 66°28' E 013°03'5 9.5
2018-Jun-09 21:00N 66°32' E 012°60'4 7.5
2018-Jun-09 20:30N 66°35' E 013°06'0 0.1
2018-Jun-09 20:00N 66°35' E 013°06'0 0.0
2018-Jun-09 19:30N 66°35' E 013°06'0 0.4
2018-Jun-09 19:00N 66°35' E 013°05'0 0.4
2018-Jun-09 18:28N 66°35' E 013°06'0 0.0
2018-Jun-09 18:00N 66°35' E 013°06'0 0.0
2018-Jun-09 17:30N 66°35' E 013°06'0 0.0
2018-Jun-09 17:00N 66°35' E 013°06'0 0.0
2018-Jun-09 16:30N 66°35' E 013°06'0 0.0
2018-Jun-09 16:00N 66°35' E 013°06'0 0.2
2018-Jun-09 15:30N 66°35' E 013°06'0 0.1
2018-Jun-09 14:30N 66°35' E 013°06'0 0.3
2018-Jun-09 14:00N 66°35' E 013°06'0 0.0
2018-Jun-09 13:30N 66°35' E 013°06'0 0.0
2018-Jun-09 13:00N 66°35' E 013°06'0 0.0
2018-Jun-09 12:30N 66°35' E 013°06'0 0.0
2018-Jun-09 12:00N 66°35' E 013°06'0 0.0
2018-Jun-09 11:30N 66°35' E 013°06'1 1.1
2018-Jun-09 11:00N 66°36' E 013°05'3 6.7
2018-Jun-09 10:30N 66°39' E 013°06'4 7.4
2018-Jun-09 09:59N 66°43' E 013°09'4 8.4
2018-Jun-09 09:30N 66°46' E 013°13'4 8.5
2018-Jun-09 09:00N 66°50' E 013°17'510.6
2018-Jun-09 08:30N 66°54' E 013°27'510.4
2018-Jun-09 08:01N 66°58' E 013°34'611.7
2018-Jun-09 07:30N 67°02' E 013°46'611.3
2018-Jun-09 07:00N 67°06' E 013°56'3 5.5
2018-Jun-09 06:31N 67°08' E 013°59'0 0.0
2018-Jun-09 06:00N 67°08' E 013°59'0 0.0
2018-Jun-09 05:30N 67°08' E 013°59'0 0.0
2018-Jun-09 05:00N 67°08' E 013°59'1 1.9
2018-Jun-09 04:31N 67°08' E 014°01'5 9.4
2018-Jun-09 04:00N 67°11' E 014°09'510.2
2018-Jun-09 03:30N 67°13' E 014°21'510.1
2018-Jun-09 03:00N 67°15' E 014°33'4 8.0
2018-Jun-09 02:30N 67°13' E 014°43'3 7.0
2018-Jun-09 02:01N 67°15' E 014°50'3 6.6
2018-Jun-09 01:30N 67°16' E 014°59'4 6.9
2018-Jun-09 01:00N 67°15' E 015°07'4 7.7
2018-Jun-09 00:30N 67°13' E 015°17'2 3.2
2018-Jun-09 00:00N 67°14' E 015°21'0 0.0
2018-Jun-08 23:29N 67°14' E 015°21'0 0.0
2018-Jun-08 23:00N 67°14' E 015°21'0 0.2
2018-Jun-08 22:29N 67°14' E 015°21'4 7.6
2018-Jun-08 22:00N 67°14' E 015°12'611.9
2018-Jun-08 21:30N 67°16' E 014°57'611.4
2018-Jun-08 21:00N 67°14' E 014°44'4 8.6
2018-Jun-08 20:31N 67°15' E 014°33'4 8.2
2018-Jun-08 20:01N 67°14' E 014°23'3 6.8
2018-Jun-08 19:30N 67°12' E 014°15'510.8
2018-Jun-08 19:00N 67°10' E 014°03'2 4.3
2018-Jun-08 18:30N 67°08' E 013°59'0 0.0
2018-Jun-08 18:00N 67°08' E 013°59'0 0.0
2018-Jun-08 17:30N 67°08' E 013°59'  

Dump ship's entire track history